»·PEaware :: DAL6536 KSFO-KSAN

DAL6536 :: KSFO-KSAN

FLIGHT INFORMATION

Flight Status: Arrived
Operator:
Delta Air Lines
More flights by this operator :: More flights under this callsign
Pilot: Aaron F. (12391)
Aircraft: BOEING 767-300
(B763)
More flights by this aircraft type
Origin: KSFO San Francisco Intl
United States
Destination: KSAN San Diego Intl-Lindbergh
United States
More flights between these airports :: More routes between these airports
Route: +OFFSH1 MCKEY LAX COMIX2
File this flight plan on PilotEdge
Remarks: PBN / A1B1C1D1L1O1 DOF / 181003 REG / N619SB EET / KZLA0028 OPR / DAL PER / D RMK / TCAS SIMBRIEF
Altitude:
(Current/Filed)
37,000ft
Speed:
(Current/Filed)
477kts
Departed: 03-Oct-18 01:19 PM
Arrived: 03-Oct-18 02:43 PM
Distance/Time
Traveled:
388nm/1:24
Distance/Time
To Go:
Arrived

Flight Plot

Page will automatically refresh every two minutes.

Flight plan parsing failed; only flown route is shown


Map Options




Map Legend


Flown Route
Filed Route
Departure Airport
Arrival Airport
Navaid (VOR, NDB)
Fix

Horizontal Profiles

Position Reports

Time Latitude Longitude Heading Altitude Ground
Speed
03-Oct-18 12:57 37.616725 -122.380491 299 34ft 0kts
03-Oct-18 12:58 37.616725 -122.380491 299 34ft 0kts
03-Oct-18 12:59 37.616725 -122.380491 299 34ft 0kts
03-Oct-18 13:00 37.616725 -122.380491 299 34ft 0kts
03-Oct-18 13:01 37.616725 -122.380491 299 34ft 0kts
03-Oct-18 13:02 37.616724 -122.380490 299 34ft 0kts
03-Oct-18 13:03 37.616724 -122.380490 299 34ft 0kts
03-Oct-18 13:04 37.616724 -122.380490 299 34ft 0kts
03-Oct-18 13:05 37.616724 -122.380490 299 34ft 0kts
03-Oct-18 13:06 37.616724 -122.380490 299 34ft 0kts
03-Oct-18 13:07 37.616724 -122.380490 299 34ft 0kts
03-Oct-18 13:08 37.616725 -122.380491 299 34ft 0kts
03-Oct-18 13:09 37.616725 -122.380491 299 34ft 0kts
03-Oct-18 13:10 37.616725 -122.380491 299 34ft 0kts
03-Oct-18 13:11 37.616725 -122.380490 299 34ft 0kts
03-Oct-18 13:12 37.616725 -122.380490 299 34ft 0kts
03-Oct-18 13:13 37.616653 -122.380332 299 34ft 1kts
03-Oct-18 13:14 37.616717 -122.379645 223 34ft 2kts
03-Oct-18 13:15 37.616897 -122.379502 203 33ft 0kts
03-Oct-18 13:16 37.616897 -122.379502 203 33ft 0kts
03-Oct-18 13:17 37.616897 -122.379502 203 33ft 0kts
03-Oct-18 13:18 37.616390 -122.379783 207 34ft 13kts
03-Oct-18 13:19 37.610804 -122.383460 207 34ft 23kts
03-Oct-18 13:20 37.608510 -122.383976 119 34ft 0kts
03-Oct-18 13:21 37.612508 -122.379865 28 34ft 91kts
03-Oct-18 13:22 37.646520 -122.364220 359 1511ft 165kts
03-Oct-18 13:23 37.681945 -122.367030 354 3586ft 172kts
03-Oct-18 13:24 37.693579 -122.436495 232 6480ft 267kts
03-Oct-18 13:25 37.656811 -122.491235 233 8472ft 246kts
03-Oct-18 13:26 37.613222 -122.575743 234 11818ft 269kts
03-Oct-18 13:27 37.580535 -122.642669 234 14274ft 285kts
03-Oct-18 13:28 37.526096 -122.734195 198 17667ft 294kts
03-Oct-18 13:29 37.463051 -122.719896 144 20228ft 307kts
03-Oct-18 13:30 37.380805 -122.683226 162 23208ft 345kts
03-Oct-18 13:31 37.285999 -122.656817 164 26163ft 369kts
03-Oct-18 13:32 37.186365 -122.630540 164 29067ft 383kts
03-Oct-18 13:33 37.085053 -122.603993 164 31933ft 385kts
03-Oct-18 13:34 36.983775 -122.577506 167 34825ft 374kts
03-Oct-18 13:35 36.889066 -122.552865 167 37013ft 366kts
03-Oct-18 13:36 36.784679 -122.525746 168 37036ft 415kts
03-Oct-18 13:37 36.666062 -122.495016 167 37027ft 462kts
03-Oct-18 13:38 36.538992 -122.462211 167 36987ft 465kts
03-Oct-18 13:39 36.418498 -122.410834 145 36999ft 471kts
03-Oct-18 13:40 36.332344 -122.300086 131 36997ft 471kts
03-Oct-18 13:41 36.248667 -122.178598 130 37000ft 471kts
03-Oct-18 13:42 36.164193 -122.056003 130 37001ft 471kts
03-Oct-18 13:43 36.080389 -121.934788 130 37002ft 471kts
03-Oct-18 13:44 35.996691 -121.814144 130 36997ft 471kts
03-Oct-18 13:45 35.912963 -121.693892 130 37002ft 471kts
03-Oct-18 13:46 35.830124 -121.575350 130 36999ft 470kts
03-Oct-18 13:47 35.746627 -121.456264 130 37001ft 471kts
03-Oct-18 13:48 35.668281 -121.344906 131 37001ft 471kts
03-Oct-18 13:49 35.589718 -121.233610 131 36997ft 471kts
03-Oct-18 13:50 35.510092 -121.121120 132 36998ft 456kts
03-Oct-18 13:51 35.437366 -121.011207 132 36997ft 450kts
03-Oct-18 13:52 35.367361 -120.901310 133 36994ft 454kts
03-Oct-18 13:53 35.292859 -120.784809 133 36986ft 453kts
03-Oct-18 13:54 35.219401 -120.670297 133 36987ft 453kts
03-Oct-18 13:55 35.146898 -120.557629 133 36986ft 453kts
03-Oct-18 13:56 35.071021 -120.440117 133 36980ft 453kts
03-Oct-18 13:57 34.999789 -120.330223 132 36985ft 465kts
03-Oct-18 13:58 34.921536 -120.209715 133 36976ft 462kts
03-Oct-18 13:59 34.847120 -120.095614 134 37001ft 464kts
03-Oct-18 14:00 34.774379 -119.984429 134 37012ft 463kts
03-Oct-18 14:01 34.697933 -119.867951 134 37012ft 463kts
03-Oct-18 14:02 34.618708 -119.747637 134 37012ft 463kts
03-Oct-18 14:03 34.539233 -119.627353 134 37011ft 463kts
03-Oct-18 14:04 34.459777 -119.507505 134 37011ft 463kts
03-Oct-18 14:05 34.381178 -119.389343 134 37011ft 463kts
03-Oct-18 14:06 34.321471 -119.299843 134 37005ft 462kts
03-Oct-18 14:07 34.245416 -119.185978 133 37003ft 463kts
03-Oct-18 14:08 34.201743 -119.041118 101 36991ft 484kts
03-Oct-18 14:09 34.185474 -118.881449 115 36980ft 476kts
03-Oct-18 14:10 34.127077 -118.754409 137 36991ft 435kts
03-Oct-18 14:11 34.060193 -118.642227 138 35938ft 430kts
03-Oct-18 14:12 33.990342 -118.526417 137 33070ft 439kts
03-Oct-18 14:13 33.923629 -118.415792 139 30696ft 428kts
03-Oct-18 14:14 33.859427 -118.335505 143 28740ft 420kts
03-Oct-18 14:15 33.791284 -118.248240 141 26605ft 400kts
03-Oct-18 14:16 33.735076 -118.174479 143 23943ft 288kts
03-Oct-18 14:17 33.678527 -118.100706 140 21736ft 327kts
03-Oct-18 14:18 33.615787 -118.018501 139 19366ft 349kts
03-Oct-18 14:19 33.552553 -117.935816 138 17475ft 350kts
03-Oct-18 14:20 33.490809 -117.863796 141 16518ft 328kts
03-Oct-18 14:21 33.429088 -117.793251 143 15519ft 311kts
03-Oct-18 14:22 33.367781 -117.727798 142 14699ft 294kts
03-Oct-18 14:23 33.310015 -117.666170 142 13714ft 288kts
03-Oct-18 14:24 33.251634 -117.603987 142 12710ft 283kts
03-Oct-18 14:25 33.194576 -117.543847 142 12000ft 269kts
03-Oct-18 14:26 33.140232 -117.486779 143 12025ft 263kts
03-Oct-18 14:27 33.079510 -117.435466 148 10607ft 279kts
03-Oct-18 14:28 33.019095 -117.384977 148 9059ft 275kts
03-Oct-18 14:29 32.962597 -117.337600 149 8473ft 261kts
03-Oct-18 14:30 32.903557 -117.288219 149 6662ft 252kts
03-Oct-18 14:31 32.849243 -117.243087 148 5997ft 244kts
03-Oct-18 14:32 32.811047 -117.203311 115 6035ft 237kts
03-Oct-18 14:33 32.795928 -117.140068 108 6018ft 240kts
03-Oct-18 14:34 32.781695 -117.076922 108 6016ft 240kts
03-Oct-18 14:35 32.761241 -117.019124 118 5919ft 240kts
03-Oct-18 14:36 32.738479 -116.961389 118 5004ft 248kts
03-Oct-18 14:37 32.710944 -116.898237 137 4006ft 242kts
03-Oct-18 14:38 32.674866 -116.914543 273 4002ft 183kts
03-Oct-18 14:39 32.683534 -116.967940 275 3825ft 188kts
03-Oct-18 14:40 32.693685 -117.023800 282 2665ft 198kts
03-Oct-18 14:41 32.706143 -117.076769 283 2066ft 168kts
03-Oct-18 14:42 32.716061 -117.118582 283 1207ft 147kts
03-Oct-18 14:43 32.726340 -117.159628 284 445ft 151kts
03-Oct-18 14:44 32.735159 -117.196598 284 21ft 47kts
03-Oct-18 14:45 32.734409 -117.199346 181 21ft 9kts
03-Oct-18 14:46 32.733769 -117.198999 149 21ft 0kts

Navigation Log

Ident Type
Flight plan parsing failed, navigation log unavailable